Time;durP1;ratioP1;P1;durP2;ratioP2;P2;SDS_P1;SDS_P2;PMS_P1;PMS_P2;Temp;Humidity;BMP_temperature;BMP_pressure;BME280_temperature;BME280_humidity;BME280_pressure;Samples;Min_cycle;Max_cycle;Signal;HPM_P1;HPM_P2
2022/05/28 00:00:34;;;;;;;8.87;2.53;;;;;;;;;;6028306;29;20230;-71
2022/05/28 00:03:57;;;;;;;10.67;2.93;;;;;;;;;;6029135;29;20844;-69
2022/05/28 00:07:19;;;;;;;7.40;2.77;;;;;;;;;;6032043;29;20242;-69
2022/05/28 00:10:39;;;;;;;14.00;4.30;;;;;;;;;;6030944;29;20235;-69
2022/05/28 00:14:00;;;;;;;12.73;3.30;;;;;;;;;;6034396;29;20261;-69
2022/05/28 00:17:21;;;;;;;9.47;3.73;;;;;;;;;;6029779;29;20245;-68
2022/05/28 00:20:42;;;;;;;4.27;1.60;;;;;;;;;;6033766;29;20237;-68
2022/05/28 00:24:04;;;;;;;10.90;2.50;;;;;;;;;;6031871;29;20282;-69
2022/05/28 00:27:24;;;;;;;3.93;1.40;;;;;;;;;;6033354;29;20233;-70
2022/05/28 00:30:45;;;;;;;2.93;1.60;;;;;;;;;;6034067;29;20242;-69
2022/05/28 00:34:06;;;;;;;4.63;1.57;;;;;;;;;;6039402;29;20562;-69
2022/05/28 00:37:26;;;;;;;3.87;1.47;;;;;;;;;;6040772;29;20563;-68
2022/05/28 00:40:50;;;;;;;3.20;1.70;;;;;;;;;;6037657;29;20241;-69
2022/05/28 00:44:11;;;;;;;4.30;1.23;;;;;;;;;;6035582;29;20312;-68
2022/05/28 00:47:32;;;;;;;8.77;2.57;;;;;;;;;;6036639;29;20237;-69
2022/05/28 00:50:53;;;;;;;3.80;2.00;;;;;;;;;;6036328;29;20237;-69
2022/05/28 00:54:14;;;;;;;6.27;1.70;;;;;;;;;;6040516;29;20800;-69
2022/05/28 00:57:38;;;;;;;6.17;1.73;;;;;;;;;;6039135;29;20237;-69
2022/05/28 01:00:59;;;;;;;10.20;2.60;;;;;;;;;;6027846;29;20241;-68
2022/05/28 01:04:27;;;;;;;4.23;1.80;;;;;;;;;;6029701;29;20234;-69
2022/05/28 01:07:54;;;;;;;5.27;2.37;;;;;;;;;;6029113;29;20241;-68
2022/05/28 01:11:20;;;;;;;7.57;2.00;;;;;;;;;;6031816;29;20531;-68
2022/05/28 01:14:46;;;;;;;7.37;2.20;;;;;;;;;;6036779;29;20241;-69
2022/05/28 01:18:08;;;;;;;5.60;2.20;;;;;;;;;;6036875;29;20648;-69
2022/05/28 01:21:32;;;;;;;9.57;2.10;;;;;;;;;;6038829;29;20242;-68
2022/05/28 01:24:55;;;;;;;2.93;1.53;;;;;;;;;;6040642;29;20305;-68
2022/05/28 01:28:18;;;;;;;4.50;1.60;;;;;;;;;;6038880;29;20226;-67
2022/05/28 01:31:39;;;;;;;4.67;1.93;;;;;;;;;;6029510;29;20538;-68
2022/05/28 01:35:01;;;;;;;4.77;1.63;;;;;;;;;;6026155;29;20241;-67
2022/05/28 01:38:22;;;;;;;2.67;1.40;;;;;;;;;;6036804;29;20241;-68
2022/05/28 01:41:44;;;;;;;6.53;2.13;;;;;;;;;;6032972;29;20241;-68
2022/05/28 01:45:07;;;;;;;2.47;1.07;;;;;;;;;;6036074;29;20242;-68
2022/05/28 01:48:28;;;;;;;3.87;1.27;;;;;;;;;;6021817;29;20242;-68
2022/05/28 01:51:50;;;;;;;3.50;1.80;;;;;;;;;;6035881;29;20667;-68
2022/05/28 01:55:12;;;;;;;5.67;1.90;;;;;;;;;;6030561;29;20230;-68
2022/05/28 01:58:32;;;;;;;4.97;2.00;;;;;;;;;;6036254;29;20572;-68
2022/05/28 02:01:55;;;;;;;1.87;1.13;;;;;;;;;;6032814;29;20238;-68
2022/05/28 02:05:15;;;;;;;2.30;1.47;;;;;;;;;;6032506;29;20238;-69
2022/05/28 02:08:37;;;;;;;4.67;1.63;;;;;;;;;;6031287;29;20486;-68
2022/05/28 02:12:05;;;;;;;3.20;1.97;;;;;;;;;;6026520;29;20234;-68
2022/05/28 02:15:38;;;;;;;2.43;1.10;;;;;;;;;;6032869;29;20241;-67
2022/05/28 02:19:02;;;;;;;3.77;1.23;;;;;;;;;;6036748;29;20242;-68
2022/05/28 02:22:27;;;;;;;2.23;0.97;;;;;;;;;;6033809;29;20234;-68
2022/05/28 02:25:51;;;;;;;3.10;1.33;;;;;;;;;;6035239;29;20241;-68
2022/05/28 02:29:12;;;;;;;3.43;1.20;;;;;;;;;;6034142;29;20334;-68
2022/05/28 02:32:33;;;;;;;2.90;1.43;;;;;;;;;;6036018;29;20332;-68
2022/05/28 02:35:55;;;;;;;3.63;1.97;;;;;;;;;;6037837;29;20238;-69
2022/05/28 02:39:16;;;;;;;3.67;1.50;;;;;;;;;;6032757;29;20296;-68
2022/05/28 02:42:36;;;;;;;4.10;1.37;;;;;;;;;;6035272;29;20624;-69
2022/05/28 02:45:57;;;;;;;4.27;1.70;;;;;;;;;;6033285;29;20492;-68
2022/05/28 02:49:18;;;;;;;4.23;1.80;;;;;;;;;;6031953;29;20333;-69
2022/05/28 02:52:39;;;;;;;3.60;1.30;;;;;;;;;;6035303;29;20230;-68
2022/05/28 02:56:00;;;;;;;4.03;1.70;;;;;;;;;;6033083;29;20245;-68
2022/05/28 02:59:21;;;;;;;6.20;1.73;;;;;;;;;;6034673;29;20663;-68
2022/05/28 03:02:41;;;;;;;3.37;1.50;;;;;;;;;;6030739;29;20238;-68
2022/05/28 03:06:02;;;;;;;5.50;1.77;;;;;;;;;;6035419;29;20329;-69
2022/05/28 03:09:24;;;;;;;7.97;2.23;;;;;;;;;;6038086;29;20233;-68
2022/05/28 03:12:45;;;;;;;2.77;1.80;;;;;;;;;;6035666;29;20591;-68
2022/05/28 03:16:05;;;;;;;7.93;2.63;;;;;;;;;;6033932;29;20229;-69
2022/05/28 03:19:26;;;;;;;6.07;2.23;;;;;;;;;;6034040;29;20292;-68
2022/05/28 03:22:46;;;;;;;4.60;1.50;;;;;;;;;;6037390;29;20614;-68
2022/05/28 03:26:12;;;;;;;9.10;2.77;;;;;;;;;;6033104;29;20234;-69
2022/05/28 03:29:33;;;;;;;6.67;2.93;;;;;;;;;;6031158;29;20238;-69
2022/05/28 03:32:54;;;;;;;5.20;1.97;;;;;;;;;;6032631;29;20222;-69
2022/05/28 03:36:14;;;;;;;10.07;2.60;;;;;;;;;;6032151;29;20357;-69
2022/05/28 03:39:34;;;;;;;6.47;2.30;;;;;;;;;;6034895;29;20229;-68
2022/05/28 03:42:56;;;;;;;6.63;2.17;;;;;;;;;;6035568;29;20237;-68
2022/05/28 03:46:19;;;;;;;7.30;2.30;;;;;;;;;;6032712;29;20238;-68
2022/05/28 03:49:40;;;;;;;8.80;2.47;;;;;;;;;;6035129;29;20246;-69
2022/05/28 03:53:00;;;;;;;3.63;2.17;;;;;;;;;;6032545;29;20230;-68
2022/05/28 03:56:21;;;;;;;6.80;2.53;;;;;;;;;;6032780;29;20634;-68
2022/05/28 03:59:43;;;;;;;6.73;2.67;;;;;;;;;;6034700;29;20234;-69
2022/05/28 04:03:04;;;;;;;7.07;2.20;;;;;;;;;;6034350;29;20229;-69
2022/05/28 04:06:24;;;;;;;8.37;2.00;;;;;;;;;;6036804;29;20375;-69
2022/05/28 04:09:45;;;;;;;12.63;4.03;;;;;;;;;;6035491;29;20233;-68
2022/05/28 04:13:06;;;;;;;5.93;2.40;;;;;;;;;;6036609;29;20332;-68
2022/05/28 04:16:28;;;;;;;11.93;3.20;;;;;;;;;;6035716;29;20234;-69
2022/05/28 04:19:49;;;;;;;6.97;2.23;;;;;;;;;;6037552;29;20250;-68
2022/05/28 04:23:09;;;;;;;7.37;2.33;;;;;;;;;;6038470;29;20551;-68
2022/05/28 04:26:30;;;;;;;6.63;2.87;;;;;;;;;;6037977;29;20616;-68
2022/05/28 04:29:50;;;;;;;8.53;2.10;;;;;;;;;;6036953;29;20304;-68
2022/05/28 04:33:12;;;;;;;8.97;2.67;;;;;;;;;;6027131;29;20229;-68
2022/05/28 04:36:33;;;;;;;7.80;2.40;;;;;;;;;;6035824;29;20668;-68
2022/05/28 04:39:54;;;;;;;7.37;2.37;;;;;;;;;;6040087;29;20262;-69
2022/05/28 04:43:14;;;;;;;8.93;2.97;;;;;;;;;;6036381;29;20666;-69
2022/05/28 04:46:35;;;;;;;6.17;2.70;;;;;;;;;;6036286;29;20249;-69
2022/05/28 04:49:56;;;;;;;8.00;2.43;;;;;;;;;;6037839;29;20238;-69
2022/05/28 04:53:17;;;;;;;10.83;3.43;;;;;;;;;;6039935;29;20238;-69
2022/05/28 04:56:37;;;;;;;16.20;3.63;;;;;;;;;;6033511;29;20237;-69
2022/05/28 04:59:58;;;;;;;5.70;2.53;;;;;;;;;;6034662;29;20242;-69
2022/05/28 05:03:18;;;;;;;4.63;2.03;;;;;;;;;;6038330;29;20249;-68
2022/05/28 05:06:41;;;;;;;4.93;2.83;;;;;;;;;;6037005;29;20238;-69
2022/05/28 05:10:01;;;;;;;6.83;2.13;;;;;;;;;;6033802;29;20518;-69
2022/05/28 05:13:22;;;;;;;6.57;2.23;;;;;;;;;;6030387;29;20288;-67
2022/05/28 05:16:42;;;;;;;9.70;2.90;;;;;;;;;;6034384;29;20325;-69
2022/05/28 05:20:03;;;;;;;9.00;2.87;;;;;;;;;;6034099;29;20519;-69
2022/05/28 05:23:25;;;;;;;10.87;3.30;;;;;;;;;;6039670;29;20242;-68
2022/05/28 05:26:45;;;;;;;9.00;2.93;;;;;;;;;;6039799;29;20242;-69
2022/05/28 05:30:07;;;;;;;10.53;3.70;;;;;;;;;;6036903;29;20234;-68
2022/05/28 05:33:28;;;;;;;12.10;3.03;;;;;;;;;;6040529;29;20827;-68
2022/05/28 05:36:49;;;;;;;8.87;2.93;;;;;;;;;;6036459;29;20241;-69
2022/05/28 05:40:11;;;;;;;7.47;2.60;;;;;;;;;;6033415;29;20237;-69
2022/05/28 05:43:32;;;;;;;10.17;3.37;;;;;;;;;;6031369;29;20317;-68
2022/05/28 05:46:53;;;;;;;8.53;4.17;;;;;;;;;;6033596;29;20234;-68
2022/05/28 05:50:13;;;;;;;8.70;2.70;;;;;;;;;;6034397;29;20487;-70
2022/05/28 05:53:34;;;;;;;9.30;3.03;;;;;;;;;;6035685;29;20237;-68
2022/05/28 05:56:56;;;;;;;12.97;3.30;;;;;;;;;;6036704;29;20266;-70
2022/05/28 06:00:17;;;;;;;8.10;2.87;;;;;;;;;;6030883;29;20234;-69
2022/05/28 06:03:44;;;;;;;5.77;1.90;;;;;;;;;;6031484;29;20604;-69
2022/05/28 06:07:05;;;;;;;4.30;1.80;;;;;;;;;;6033428;29;20265;-70
2022/05/28 06:10:26;;;;;;;7.13;2.00;;;;;;;;;;6029833;29;20242;-70
2022/05/28 06:13:48;;;;;;;5.53;2.23;;;;;;;;;;6025053;29;20625;-69
2022/05/28 06:17:08;;;;;;;5.27;1.90;;;;;;;;;;6032626;29;20257;-70
2022/05/28 06:20:30;;;;;;;5.97;2.47;;;;;;;;;;6037085;29;20238;-69
2022/05/28 06:23:50;;;;;;;5.53;2.33;;;;;;;;;;6029145;29;20253;-69
2022/05/28 06:27:11;;;;;;;6.97;2.63;;;;;;;;;;6034975;29;20640;-69
2022/05/28 06:30:33;;;;;;;6.27;1.70;;;;;;;;;;6031976;29;21837;-68
2022/05/28 06:33:54;;;;;;;4.27;2.17;;;;;;;;;;6033757;29;20600;-69
2022/05/28 06:37:15;;;;;;;7.73;2.83;;;;;;;;;;6036414;29;20321;-69
2022/05/28 06:40:36;;;;;;;9.30;2.80;;;;;;;;;;6036023;29;20880;-69
2022/05/28 06:43:56;;;;;;;8.07;2.50;;;;;;;;;;6036060;29;20237;-69
2022/05/28 06:47:18;;;;;;;6.73;2.37;;;;;;;;;;6028730;29;20234;-69
2022/05/28 06:54:17;;;;;;;11.17;3.37;;;;;;;;;;6036256;29;20612;-69
2022/05/28 06:57:37;;;;;;;9.43;2.67;;;;;;;;;;6034731;29;20476;-68
2022/05/28 07:00:59;;;;;;;10.43;3.20;;;;;;;;;;6022739;29;20308;-68
2022/05/28 07:04:21;;;;;;;10.23;3.03;;;;;;;;;;6029140;29;20620;-69
2022/05/28 07:07:42;;;;;;;9.90;3.00;;;;;;;;;;6027402;29;20230;-70
2022/05/28 07:11:05;;;;;;;8.10;3.70;;;;;;;;;;6031858;29;20529;-69
2022/05/28 07:14:26;;;;;;;11.10;4.00;;;;;;;;;;6035886;29;20234;-69
2022/05/28 07:17:46;;;;;;;7.53;2.83;;;;;;;;;;6028903;29;20632;-69
2022/05/28 07:21:09;;;;;;;8.17;2.50;;;;;;;;;;6030334;29;20233;-71
2022/05/28 07:24:30;;;;;;;9.63;3.27;;;;;;;;;;6031771;29;20230;-70
2022/05/28 07:27:50;;;;;;;9.27;3.40;;;;;;;;;;6037014;29;20337;-69
2022/05/28 07:31:12;;;;;;;11.67;3.00;;;;;;;;;;6027777;29;20253;-70
2022/05/28 07:34:33;;;;;;;13.00;2.97;;;;;;;;;;6028166;29;20234;-68
2022/05/28 07:37:55;;;;;;;7.23;2.63;;;;;;;;;;6029064;29;21170;-68
2022/05/28 07:41:17;;;;;;;9.70;3.03;;;;;;;;;;6032618;29;20242;-69
2022/05/28 07:44:38;;;;;;;10.13;2.70;;;;;;;;;;6039437;29;20965;-69
2022/05/28 07:47:58;;;;;;;7.83;2.90;;;;;;;;;;6037030;29;20613;-68
2022/05/28 07:51:19;;;;;;;13.13;4.33;;;;;;;;;;6040157;29;20234;-69
2022/05/28 07:54:41;;;;;;;11.43;3.87;;;;;;;;;;6038279;29;20596;-68
2022/05/28 07:58:04;;;;;;;8.27;2.80;;;;;;;;;;6032427;29;20232;-69
2022/05/28 08:01:26;;;;;;;6.33;2.37;;;;;;;;;;6029433;29;20238;-68
2022/05/28 08:04:47;;;;;;;13.70;4.17;;;;;;;;;;6036088;29;20336;-68
2022/05/28 08:08:08;;;;;;;8.00;3.53;;;;;;;;;;6036201;29;20249;-69
2022/05/28 08:11:30;;;;;;;8.87;3.50;;;;;;;;;;6033003;29;20532;-69
2022/05/28 08:14:50;;;;;;;9.27;3.30;;;;;;;;;;6039582;29;20237;-69
2022/05/28 08:18:12;;;;;;;10.67;3.87;;;;;;;;;;6036857;29;20233;-69
2022/05/28 08:25:10;;;;;;;8.53;3.00;;;;;;;;;;6033944;29;20238;-70
2022/05/28 08:28:32;;;;;;;7.60;3.43;;;;;;;;;;6035806;29;20238;-70
2022/05/28 08:31:53;;;;;;;9.07;2.50;;;;;;;;;;6031918;29;20241;-70
2022/05/28 08:35:13;;;;;;;7.60;3.00;;;;;;;;;;6038530;29;20234;-69
2022/05/28 08:38:34;;;;;;;12.23;3.80;;;;;;;;;;6036992;29;20226;-69
2022/05/28 08:41:57;;;;;;;8.73;3.30;;;;;;;;;;6027624;29;20246;-69
2022/05/28 08:45:19;;;;;;;13.83;3.87;;;;;;;;;;6031687;29;20246;-70
2022/05/28 08:48:42;;;;;;;11.47;3.60;;;;;;;;;;6038991;29;20257;-69
2022/05/28 08:52:05;;;;;;;9.93;4.00;;;;;;;;;;6033924;29;20608;-70
2022/05/28 08:55:26;;;;;;;7.50;2.97;;;;;;;;;;6032576;29;20234;-70
2022/05/28 08:58:48;;;;;;;6.03;2.83;;;;;;;;;;6043945;29;20335;-70
2022/05/28 09:02:13;;;;;;;10.67;3.13;;;;;;;;;;6039904;29;20233;-70
2022/05/28 09:05:35;;;;;;;12.40;4.73;;;;;;;;;;6040694;29;20230;-71
2022/05/28 09:08:56;;;;;;;9.17;3.40;;;;;;;;;;6030759;29;20266;-70
2022/05/28 09:12:18;;;;;;;6.23;2.43;;;;;;;;;;6032036;29;20238;-70
2022/05/28 09:15:39;;;;;;;4.73;2.53;;;;;;;;;;6039404;29;20652;-69
2022/05/28 09:19:04;;;;;;;9.07;4.03;;;;;;;;;;6040277;29;20254;-70
2022/05/28 09:22:25;;;;;;;7.53;3.37;;;;;;;;;;6038462;29;20322;-70
2022/05/28 09:25:49;;;;;;;7.97;2.33;;;;;;;;;;6037937;29;20820;-70
2022/05/28 09:29:17;;;;;;;5.83;2.43;;;;;;;;;;6035836;29;20237;-70
2022/05/28 09:32:49;;;;;;;11.13;3.80;;;;;;;;;;6033789;29;20234;-71
2022/05/28 09:36:14;;;;;;;8.20;2.63;;;;;;;;;;6032652;29;20230;-71
2022/05/28 09:39:39;;;;;;;9.60;2.80;;;;;;;;;;6033086;29;20237;-70
2022/05/28 09:43:24;;;;;;;11.90;2.83;;;;;;;;;;6037525;29;20258;-69
2022/05/28 09:46:45;;;;;;;12.33;3.40;;;;;;;;;;6032040;29;20617;-69
2022/05/28 09:50:16;;;;;;;7.27;3.37;;;;;;;;;;6040458;29;20234;-70
2022/05/28 09:57:22;;;;;;;6.50;2.60;;;;;;;;;;6030560;29;20246;-69
2022/05/28 10:00:44;;;;;;;10.77;4.43;;;;;;;;;;6033939;29;20261;-69
2022/05/28 10:07:45;;;;;;;9.97;3.17;;;;;;;;;;6032872;29;20225;-69
2022/05/28 10:11:07;;;;;;;14.63;5.03;;;;;;;;;;6037064;29;20233;-70
2022/05/28 10:14:29;;;;;;;11.07;3.87;;;;;;;;;;6035016;29;20230;-69
2022/05/28 10:17:53;;;;;;;12.30;4.00;;;;;;;;;;6022992;29;20237;-71
2022/05/28 10:21:16;;;;;;;10.67;3.23;;;;;;;;;;6040291;29;20235;-71
2022/05/28 10:24:41;;;;;;;15.80;4.00;;;;;;;;;;6043777;29;20619;-70
2022/05/28 10:28:03;;;;;;;6.83;2.53;;;;;;;;;;6040481;29;20237;-71
2022/05/28 10:31:29;;;;;;;7.00;2.73;;;;;;;;;;6037953;29;20246;-70
2022/05/28 10:34:58;;;;;;;9.83;3.10;;;;;;;;;;6043636;29;20234;-71
2022/05/28 10:38:22;;;;;;;8.77;2.57;;;;;;;;;;6038602;29;20238;-70
2022/05/28 10:41:43;;;;;;;10.73;2.80;;;;;;;;;;6040726;29;20246;-70
2022/05/28 10:45:06;;;;;;;13.33;3.83;;;;;;;;;;6042970;29;20234;-71
2022/05/28 10:48:32;;;;;;;8.03;2.70;;;;;;;;;;6036495;29;21712;-69
2022/05/28 10:51:56;;;;;;;8.00;2.60;;;;;;;;;;6032211;29;20381;-72
2022/05/28 10:55:21;;;;;;;6.47;2.50;;;;;;;;;;6028120;29;20552;-72
2022/05/28 10:58:51;;;;;;;12.00;3.60;;;;;;;;;;6033727;29;20233;-72
2022/05/28 11:02:22;;;;;;;9.20;2.17;;;;;;;;;;6027226;29;20245;-71
2022/05/28 11:05:54;;;;;;;5.20;2.10;;;;;;;;;;6037593;29;20257;-71
2022/05/28 11:09:19;;;;;;;7.60;3.00;;;;;;;;;;6029209;29;20241;-72
2022/05/28 11:12:48;;;;;;;9.20;3.30;;;;;;;;;;6052550;29;20238;-71
2022/05/28 11:16:16;;;;;;;10.73;2.60;;;;;;;;;;6031689;29;20265;-71
2022/05/28 11:19:47;;;;;;;8.07;2.73;;;;;;;;;;6040094;29;20515;-70
2022/05/28 11:23:13;;;;;;;9.23;3.17;;;;;;;;;;6037400;29;20234;-72
2022/05/28 11:26:35;;;;;;;9.80;3.33;;;;;;;;;;6035027;29;20229;-71
2022/05/28 11:29:59;;;;;;;10.07;3.17;;;;;;;;;;6039517;29;20249;-71
2022/05/28 11:33:22;;;;;;;8.77;2.93;;;;;;;;;;6036452;29;20279;-70
2022/05/28 11:36:46;;;;;;;6.80;3.07;;;;;;;;;;6030976;29;20507;-71
2022/05/28 11:40:11;;;;;;;9.20;3.60;;;;;;;;;;6034413;29;20258;-70
2022/05/28 11:43:33;;;;;;;10.50;3.53;;;;;;;;;;6031242;29;20241;-69
2022/05/28 11:46:57;;;;;;;14.33;5.23;;;;;;;;;;6031095;29;20238;-69
2022/05/28 11:54:04;;;;;;;8.53;3.53;;;;;;;;;;6033168;29;20565;-71
2022/05/28 11:57:26;;;;;;;10.07;4.73;;;;;;;;;;6034111;29;20246;-71
2022/05/28 12:00:50;;;;;;;14.83;4.50;;;;;;;;;;6031347;29;20282;-70
2022/05/28 12:04:11;;;;;;;11.87;4.50;;;;;;;;;;6034044;29;20237;-71
2022/05/28 12:07:34;;;;;;;13.30;4.40;;;;;;;;;;6036937;29;20226;-71
2022/05/28 12:10:57;;;;;;;9.43;3.80;;;;;;;;;;6010424;29;20242;-71
2022/05/28 12:14:26;;;;;;;12.43;3.77;;;;;;;;;;6030636;29;20328;-70
2022/05/28 12:17:56;;;;;;;10.47;3.70;;;;;;;;;;6031528;29;20241;-71
2022/05/28 12:21:24;;;;;;;8.63;3.37;;;;;;;;;;6033958;29;20241;-71
2022/05/28 12:24:55;;;;;;;7.57;2.87;;;;;;;;;;6036590;29;20244;-69
2022/05/28 12:28:25;;;;;;;9.30;3.30;;;;;;;;;;6028549;29;20595;-72
2022/05/28 12:31:45;;;;;;;8.90;3.47;;;;;;;;;;6032631;29;20337;-71
2022/05/28 12:35:09;;;;;;;10.70;3.43;;;;;;;;;;6026952;29;20242;-72
2022/05/28 12:38:38;;;;;;;9.90;2.60;;;;;;;;;;6034224;29;20238;-70
2022/05/28 12:41:59;;;;;;;7.53;2.37;;;;;;;;;;6021634;29;20348;-71
2022/05/28 12:45:34;;;;;;;6.63;2.67;;;;;;;;;;6036372;29;20627;-72
2022/05/28 12:49:04;;;;;;;7.87;2.80;;;;;;;;;;6041811;29;20237;-71
2022/05/28 12:52:29;;;;;;;6.97;2.60;;;;;;;;;;6015722;29;20542;-71
2022/05/28 12:55:59;;;;;;;9.63;3.47;;;;;;;;;;6030098;29;20257;-72
2022/05/28 12:59:29;;;;;;;5.43;1.83;;;;;;;;;;6020903;29;20352;-69
2022/05/28 13:02:53;;;;;;;8.00;2.53;;;;;;;;;;6040989;29;20245;-69
2022/05/28 13:06:15;;;;;;;8.40;2.43;;;;;;;;;;6046106;29;20245;-69
2022/05/28 13:09:37;;;;;;;5.93;1.60;;;;;;;;;;6049392;29;20237;-69
2022/05/28 13:13:05;;;;;;;8.13;2.70;;;;;;;;;;6047376;29;20241;-69
2022/05/28 13:16:33;;;;;;;10.20;2.77;;;;;;;;;;6044470;29;20242;-67
2022/05/28 13:20:03;;;;;;;12.60;3.43;;;;;;;;;;6039199;29;20245;-68
2022/05/28 13:23:30;;;;;;;11.17;4.83;;;;;;;;;;6047611;29;20966;-70
2022/05/28 13:26:55;;;;;;;7.23;2.93;;;;;;;;;;6044724;29;20321;-70
2022/05/28 13:30:18;;;;;;;19.57;4.20;;;;;;;;;;6042359;29;20340;-69
2022/05/28 13:33:40;;;;;;;7.03;3.17;;;;;;;;;;6044804;29;20609;-69
2022/05/28 13:37:02;;;;;;;8.63;2.93;;;;;;;;;;6028491;29;20623;-69
2022/05/28 13:40:24;;;;;;;10.33;3.50;;;;;;;;;;6048612;29;20253;-68
2022/05/28 13:43:47;;;;;;;7.90;2.40;;;;;;;;;;6047800;29;20234;-69
2022/05/28 13:47:08;;;;;;;10.70;2.83;;;;;;;;;;6049261;29;20290;-69
2022/05/28 13:50:30;;;;;;;10.60;3.23;;;;;;;;;;6049029;29;20246;-69
2022/05/28 13:53:55;;;;;;;7.33;2.53;;;;;;;;;;6032716;29;20238;-69
2022/05/28 13:57:15;;;;;;;6.40;3.57;;;;;;;;;;6036891;29;20233;-69
2022/05/28 14:00:37;;;;;;;11.80;2.67;;;;;;;;;;6034108;29;20325;-70
2022/05/28 14:04:08;;;;;;;7.57;2.70;;;;;;;;;;6027513;29;20229;-70
2022/05/28 14:07:31;;;;;;;12.00;3.97;;;;;;;;;;6049843;29;20241;-68
2022/05/28 14:11:00;;;;;;;9.13;4.00;;;;;;;;;;6032772;29;20241;-69
2022/05/28 14:14:22;;;;;;;10.77;2.77;;;;;;;;;;6043378;29;20237;-69
2022/05/28 14:17:43;;;;;;;6.53;2.27;;;;;;;;;;6040664;29;20238;-69
2022/05/28 14:21:06;;;;;;;10.50;3.83;;;;;;;;;;6041594;29;20241;-69
2022/05/28 14:24:29;;;;;;;8.23;2.87;;;;;;;;;;6044477;29;20245;-71
2022/05/28 14:27:51;;;;;;;10.73;2.43;;;;;;;;;;6037893;29;22812;-70
2022/05/28 14:31:12;;;;;;;6.63;2.50;;;;;;;;;;6041447;29;20238;-70
2022/05/28 14:34:33;;;;;;;8.60;4.07;;;;;;;;;;6043759;29;20246;-71
2022/05/28 14:38:00;;;;;;;12.17;3.57;;;;;;;;;;6035897;29;20258;-71
2022/05/28 14:41:25;;;;;;;13.07;4.27;;;;;;;;;;6043312;29;20234;-73
2022/05/28 14:44:47;;;;;;;7.43;3.73;;;;;;;;;;6041280;29;20253;-74
2022/05/28 14:48:17;;;;;;;9.40;4.13;;;;;;;;;;6035761;29;20238;-72
2022/05/28 14:51:39;;;;;;;10.00;4.17;;;;;;;;;;6039688;29;20721;-68
2022/05/28 14:55:02;;;;;;;6.73;3.07;;;;;;;;;;6039596;29;20237;-70
2022/05/28 14:58:24;;;;;;;7.73;2.57;;;;;;;;;;6041599;29;20241;-72
2022/05/28 15:01:46;;;;;;;10.13;3.73;;;;;;;;;;6037040;29;20226;-70
2022/05/28 15:05:08;;;;;;;18.70;4.90;;;;;;;;;;6034668;29;20475;-69
2022/05/28 15:08:29;;;;;;;12.67;3.97;;;;;;;;;;6035316;29;20234;-69
2022/05/28 15:11:50;;;;;;;10.07;3.63;;;;;;;;;;6038415;29;22526;-70
2022/05/28 15:15:10;;;;;;;12.93;3.60;;;;;;;;;;6042455;29;20241;-73
2022/05/28 15:18:34;;;;;;;8.37;3.47;;;;;;;;;;6028652;29;20849;-70
2022/05/28 15:21:55;;;;;;;9.80;3.50;;;;;;;;;;6044093;29;20268;-68
2022/05/28 15:25:15;;;;;;;5.70;2.77;;;;;;;;;;6041676;29;20238;-74
2022/05/28 15:28:36;;;;;;;7.57;3.53;;;;;;;;;;6026388;29;20238;-73
2022/05/28 15:31:58;;;;;;;11.03;3.67;;;;;;;;;;6025533;29;20242;-73
2022/05/28 15:37:51;;;;;;;11.83;3.70;;;;;;;;;;6028019;29;20242;-73
2022/05/28 15:39:02;;;;;;;8.80;4.13;;;;;;;;;;6028574;29;20594;-73
2022/05/28 15:42:25;;;;;;;8.17;3.33;;;;;;;;;;6034606;29;20242;-73
2022/05/28 15:45:46;;;;;;;8.90;3.07;;;;;;;;;;6032382;29;20241;-73
2022/05/28 15:49:16;;;;;;;13.23;3.40;;;;;;;;;;6033757;29;20235;-73
2022/05/28 15:52:38;;;;;;;10.07;3.97;;;;;;;;;;6043102;29;20253;-74
2022/05/28 15:55:59;;;;;;;7.00;3.63;;;;;;;;;;6043813;29;20313;-73
2022/05/28 15:59:20;;;;;;;14.73;4.57;;;;;;;;;;6045078;29;20234;-72
2022/05/28 16:02:41;;;;;;;8.77;3.10;;;;;;;;;;6049966;29;20237;-72
2022/05/28 16:06:07;;;;;;;8.93;3.20;;;;;;;;;;6041272;29;20321;-72
2022/05/28 16:09:29;;;;;;;11.73;4.33;;;;;;;;;;6042872;29;20234;-74
2022/05/28 16:12:49;;;;;;;11.10;3.20;;;;;;;;;;6043560;29;20237;-74
2022/05/28 16:16:11;;;;;;;14.80;3.87;;;;;;;;;;6046166;29;20360;-74
2022/05/28 16:19:32;;;;;;;8.27;3.87;;;;;;;;;;6041635;29;20316;-75
2022/05/28 16:22:52;;;;;;;11.23;4.53;;;;;;;;;;6040263;29;20241;-74
2022/05/28 16:26:16;;;;;;;11.10;4.67;;;;;;;;;;6045093;29;20238;-74
2022/05/28 16:29:37;;;;;;;7.40;3.73;;;;;;;;;;6033832;29;20238;-74
2022/05/28 16:32:57;;;;;;;12.73;3.80;;;;;;;;;;6043568;29;20582;-75
2022/05/28 16:36:18;;;;;;;7.83;3.27;;;;;;;;;;6049183;29;20234;-74
2022/05/28 16:39:39;;;;;;;13.43;4.43;;;;;;;;;;6041627;29;20316;-74
2022/05/28 16:43:03;;;;;;;14.23;3.80;;;;;;;;;;6042863;29;20233;-74
2022/05/28 16:46:23;;;;;;;9.57;3.40;;;;;;;;;;6043106;29;20842;-73
2022/05/28 16:49:44;;;;;;;8.17;3.53;;;;;;;;;;6042906;29;20521;-73
2022/05/28 16:53:05;;;;;;;7.57;3.50;;;;;;;;;;6044760;29;20238;-73
2022/05/28 16:56:27;;;;;;;21.53;5.60;;;;;;;;;;6042303;29;20616;-74
2022/05/28 16:59:51;;;;;;;11.27;3.90;;;;;;;;;;6042963;29;20230;-74
2022/05/28 17:03:12;;;;;;;10.13;3.67;;;;;;;;;;6039558;29;20234;-74
2022/05/28 17:06:32;;;;;;;12.03;4.60;;;;;;;;;;6040540;29;20313;-73
2022/05/28 17:09:52;;;;;;;9.53;4.10;;;;;;;;;;6039665;29;20317;-74
2022/05/28 17:13:15;;;;;;;9.97;3.87;;;;;;;;;;6039942;29;20289;-74
2022/05/28 17:16:37;;;;;;;11.00;4.23;;;;;;;;;;6042916;29;20348;-75
2022/05/28 17:19:57;;;;;;;11.97;4.30;;;;;;;;;;6036813;29;20230;-74
2022/05/28 17:23:18;;;;;;;8.03;3.70;;;;;;;;;;6027752;29;20241;-74
2022/05/28 17:26:39;;;;;;;10.80;3.33;;;;;;;;;;6039176;29;20230;-75
2022/05/28 17:29:59;;;;;;;6.77;3.53;;;;;;;;;;6040749;29;20225;-74
2022/05/28 17:33:23;;;;;;;10.63;3.57;;;;;;;;;;6038125;29;20551;-75
2022/05/28 17:36:43;;;;;;;9.97;3.67;;;;;;;;;;6030935;29;20302;-74
2022/05/28 17:40:05;;;;;;;10.27;3.73;;;;;;;;;;6029366;29;20643;-73
2022/05/28 17:43:27;;;;;;;9.43;3.20;;;;;;;;;;6041277;29;20333;-78
2022/05/28 17:46:47;;;;;;;8.97;4.97;;;;;;;;;;6037323;29;20241;-75
2022/05/28 17:50:10;;;;;;;129.37;115.43;;;;;;;;;;6047476;29;20280;-78
2022/05/28 17:53:31;;;;;;;139.60;130.23;;;;;;;;;;6045253;29;20238;-74
2022/05/28 17:56:52;;;;;;;216.43;123.27;;;;;;;;;;6040337;29;20243;-72
2022/05/28 18:00:13;;;;;;;377.33;338.80;;;;;;;;;;6028562;29;20246;-72
2022/05/28 18:03:34;;;;;;;441.63;396.80;;;;;;;;;;6035599;29;20245;-75
2022/05/28 18:06:57;;;;;;;472.03;320.87;;;;;;;;;;6037689;29;20313;-74
2022/05/28 18:10:18;;;;;;;10.77;9.63;;;;;;;;;;6033693;29;20775;-75
2022/05/28 18:13:39;;;;;;;8.93;4.47;;;;;;;;;;6037011;29;20619;-74
2022/05/28 18:16:59;;;;;;;7.97;3.80;;;;;;;;;;6040597;29;20320;-73
2022/05/28 18:20:22;;;;;;;11.73;3.90;;;;;;;;;;6040943;29;20332;-73
2022/05/28 18:23:46;;;;;;;13.80;4.93;;;;;;;;;;6039937;29;20238;-74
2022/05/28 18:27:08;;;;;;;7.40;3.97;;;;;;;;;;6032997;29;20266;-73
2022/05/28 18:30:29;;;;;;;9.20;4.23;;;;;;;;;;6032826;29;20238;-73
2022/05/28 18:33:49;;;;;;;10.47;4.87;;;;;;;;;;6043575;29;20295;-74
2022/05/28 18:37:10;;;;;;;12.33;4.77;;;;;;;;;;6039042;29;20246;-74
2022/05/28 18:40:34;;;;;;;8.70;3.77;;;;;;;;;;6035079;29;20246;-74
2022/05/28 18:43:54;;;;;;;8.23;3.83;;;;;;;;;;6032943;29;20237;-75
2022/05/28 18:47:15;;;;;;;9.97;5.17;;;;;;;;;;6034845;29;20230;-74
2022/05/28 18:50:36;;;;;;;9.77;4.27;;;;;;;;;;6033828;29;20242;-74
2022/05/28 18:54:05;;;;;;;9.57;4.33;;;;;;;;;;6034355;29;20250;-73
2022/05/28 18:57:27;;;;;;;7.73;4.50;;;;;;;;;;6022303;29;20234;-74
2022/05/28 19:00:48;;;;;;;12.40;5.30;;;;;;;;;;6042142;29;20646;-74
2022/05/28 19:04:10;;;;;;;10.53;4.00;;;;;;;;;;6038197;29;20237;-73
2022/05/28 19:07:32;;;;;;;6.37;4.07;;;;;;;;;;6038445;29;20238;-74
2022/05/28 19:10:53;;;;;;;7.77;4.23;;;;;;;;;;6023858;29;20242;-75
2022/05/28 19:14:16;;;;;;;12.07;5.17;;;;;;;;;;6036626;29;20245;-73
2022/05/28 19:17:37;;;;;;;9.27;4.27;;;;;;;;;;6034662;29;20328;-73
2022/05/28 19:20:58;;;;;;;13.73;4.90;;;;;;;;;;6038412;29;20233;-73
2022/05/28 19:24:19;;;;;;;8.37;4.87;;;;;;;;;;6033211;29;20317;-73
2022/05/28 19:27:41;;;;;;;7.87;3.77;;;;;;;;;;6038904;29;20242;-73
2022/05/28 19:31:04;;;;;;;7.03;3.60;;;;;;;;;;6034667;29;20836;-74
2022/05/28 19:34:25;;;;;;;8.67;3.90;;;;;;;;;;6037900;29;20234;-74
2022/05/28 19:37:46;;;;;;;10.17;4.67;;;;;;;;;;6030761;29;20504;-74
2022/05/28 19:41:07;;;;;;;11.00;5.73;;;;;;;;;;6035264;29;20234;-74
2022/05/28 19:44:32;;;;;;;6.03;3.93;;;;;;;;;;6038923;29;20238;-74
2022/05/28 19:47:58;;;;;;;9.90;4.53;;;;;;;;;;6033603;29;20242;-74
2022/05/28 19:51:18;;;;;;;5.23;2.80;;;;;;;;;;6031254;29;20229;-73
2022/05/28 19:54:39;;;;;;;8.03;3.63;;;;;;;;;;6036194;29;20225;-75
2022/05/28 19:57:59;;;;;;;7.57;4.07;;;;;;;;;;6034148;29;20242;-73
2022/05/28 20:01:21;;;;;;;7.33;3.90;;;;;;;;;;6022027;29;20230;-74
2022/05/28 20:04:43;;;;;;;6.73;3.77;;;;;;;;;;6032741;29;20616;-73
2022/05/28 20:08:04;;;;;;;7.00;3.13;;;;;;;;;;6012103;29;20238;-73
2022/05/28 20:11:25;;;;;;;10.93;4.80;;;;;;;;;;6031927;29;20663;-73
2022/05/28 20:14:45;;;;;;;6.83;4.47;;;;;;;;;;6028761;29;20237;-73
2022/05/28 20:18:06;;;;;;;6.57;4.67;;;;;;;;;;6033338;29;20233;-73
2022/05/28 20:21:28;;;;;;;7.60;4.23;;;;;;;;;;6028280;29;20818;-73
2022/05/28 20:24:48;;;;;;;9.60;5.33;;;;;;;;;;6043354;29;20328;-73